Time,TemperatureF,DewpointF,PressureIn,WindDirection,WindDirectionDegrees,WindSpeedMPH,WindSpeedGustMPH,Humidity,HourlyPrecipIn,Conditions,Clouds,dailyrainin,SoftwareType,DateUTC
2013-12-14 00:01:00,31.5,31.0,30.34,ESE,112,0.0,0.0,98,0.00,CLR,,0.00,WeatherDisplay:10.37,2013-12-14 05:01:00,
2013-12-14 00:02:00,31.5,31.0,30.33,ESE,112,0.0,0.0,98,0.00,CLR,,0.00,WeatherDisplay:10.37,2013-12-14 05:02:00,
2013-12-14 00:07:00,31.3,30.8,30.33,ENE,68,0.0,0.0,98,0.00,CLR,,0.00,WeatherDisplay:10.37,2013-12-14 05:07:00,
2013-12-14 00:12:00,31.1,30.6,30.33,East,90,0.0,0.0,98,0.00,CLR,,0.00,WeatherDisplay:10.37,2013-12-14 05:12:00,
2013-12-14 00:17:00,31.1,30.6,30.32,ENE,68,0.0,0.0,98,0.00,CLR,,0.00,WeatherDisplay:10.37,2013-12-14 05:17:00,
2013-12-14 00:22:00,31.1,30.6,30.32,ESE,112,0.0,0.0,98,0.00,CLR,,0.00,WeatherDisplay:10.37,2013-12-14 05:22:00,
2013-12-14 00:27:00,31.3,30.8,30.31,ENE,68,0.0,0.0,98,0.00,CLR,,0.00,WeatherDisplay:10.37,2013-12-14 05:27:00,
2013-12-14 00:32:00,31.5,31.0,30.31,ESE,112,0.0,0.0,98,0.00,CLR,,0.00,WeatherDisplay:10.37,2013-12-14 05:32:00,
2013-12-14 00:37:00,31.6,31.1,30.31,East,90,0.0,0.0,98,0.00,CLR,,0.00,WeatherDisplay:10.37,2013-12-14 05:37:00,
2013-12-14 00:42:00,31.8,31.3,30.31,NE,45,0.0,0.0,98,0.00,CLR,,0.00,WeatherDisplay:10.37,2013-12-14 05:42:00,
2013-12-14 00:47:00,32.0,31.5,30.31,East,90,0.0,0.0,98,0.00,CLR,,0.00,WeatherDisplay:10.37,2013-12-14 05:47:00,
2013-12-14 00:52:00,32.2,31.7,30.30,NE,45,0.0,0.0,98,0.00,CLR,,0.00,WeatherDisplay:10.37,2013-12-14 05:52:00,
2013-12-14 00:57:00,32.4,31.9,30.30,North,360,0.0,0.0,98,0.00,CLR,,0.00,WeatherDisplay:10.37,2013-12-14 05:57:00,
2013-12-14 01:02:00,32.5,32.0,30.31,NE,45,0.0,0.0,98,0.00,CLR,,0.00,WeatherDisplay:10.37,2013-12-14 06:02:00,
2013-12-14 01:07:00,32.9,32.4,30.31,ESE,112,0.0,0.0,98,0.00,CLR,,0.00,WeatherDisplay:10.37,2013-12-14 06:07:00,
2013-12-14 01:12:00,32.9,32.4,30.31,ENE,68,0.0,0.0,98,0.00,CLR,,0.00,WeatherDisplay:10.37,2013-12-14 06:12:00,
2013-12-14 01:17:00,32.9,32.4,30.31,NE,45,0.0,0.0,98,0.00,CLR,,0.00,WeatherDisplay:10.37,2013-12-14 06:17:00,
2013-12-14 01:22:00,32.9,32.4,30.31,NNE,22,0.0,0.0,98,0.00,CLR,,0.00,WeatherDisplay:10.37,2013-12-14 06:22:00,
2013-12-14 01:27:00,32.9,32.4,30.31,NNE,22,0.0,0.0,98,0.00,CLR,,0.00,WeatherDisplay:10.37,2013-12-14 06:27:00,
2013-12-14 01:32:00,32.9,32.4,30.31,ENE,68,0.0,0.0,98,0.00,CLR,,0.00,WeatherDisplay:10.37,2013-12-14 06:32:00,
2013-12-14 01:37:00,32.9,32.4,30.31,NNW,338,0.0,0.0,98,0.00,CLR,,0.00,WeatherDisplay:10.37,2013-12-14 06:37:00,
2013-12-14 01:42:00,32.9,32.4,30.31,WNW,292,0.0,0.0,98,0.00,CLR,,0.00,WeatherDisplay:10.37,2013-12-14 06:42:00,
2013-12-14 01:47:00,32.9,32.4,30.31,NW,315,0.0,0.0,98,0.00,CLR,,0.00,WeatherDisplay:10.37,2013-12-14 06:47:00,
2013-12-14 01:52:00,32.9,32.4,30.31,ENE,68,0.0,0.0,98,0.00,CLR,,0.00,WeatherDisplay:10.37,2013-12-14 06:52:00,
2013-12-14 01:57:00,32.7,32.2,30.31,NE,45,0.0,0.0,98,0.00,CLR,,0.00,WeatherDisplay:10.37,2013-12-14 06:57:00,
2013-12-14 02:02:00,32.7,32.2,30.31,NW,315,0.0,0.0,98,0.00,CLR,,0.00,WeatherDisplay:10.37,2013-12-14 07:02:00,
2013-12-14 02:07:00,32.7,32.2,30.31,East,90,0.0,0.0,98,0.00,CLR,,0.00,WeatherDisplay:10.37,2013-12-14 07:07:00,
2013-12-14 02:12:00,32.9,32.4,30.31,NW,315,0.0,0.0,98,0.00,CLR,,0.00,WeatherDisplay:10.37,2013-12-14 07:12:00,
2013-12-14 02:17:00,33.1,32.6,30.32,ENE,68,0.0,0.0,98,0.00,CLR,,0.00,WeatherDisplay:10.37,2013-12-14 07:17:00,
2013-12-14 02:22:00,33.1,32.6,30.32,East,90,0.0,0.0,98,0.00,CLR,,0.00,WeatherDisplay:10.37,2013-12-14 07:22:00,
2013-12-14 02:27:00,33.1,32.6,30.32,ENE,68,0.0,0.0,98,0.00,CLR,,0.00,WeatherDisplay:10.37,2013-12-14 07:27:00,
2013-12-14 02:32:00,33.3,32.8,30.32,NNE,22,0.0,0.0,98,0.00,CLR,,0.00,WeatherDisplay:10.37,2013-12-14 07:32:00,
2013-12-14 02:37:00,33.4,32.9,30.32,NNW,338,3.5,3.5,98,0.00,CLR,,0.00,WeatherDisplay:10.37,2013-12-14 07:37:00,
2013-12-14 02:42:00,33.4,32.9,30.32,NNE,22,0.0,0.0,98,0.00,CLR,,0.00,WeatherDisplay:10.37,2013-12-14 07:42:00,
2013-12-14 02:47:00,33.3,32.8,30.32,East,90,0.0,0.0,98,0.00,CLR,,0.00,WeatherDisplay:10.37,2013-12-14 07:47:00,
2013-12-14 02:52:00,33.3,32.8,30.32,ENE,68,0.0,0.0,98,0.00,CLR,,0.00,WeatherDisplay:10.37,2013-12-14 07:52:00,
2013-12-14 02:57:00,33.3,32.8,30.32,ESE,112,0.0,0.0,98,0.00,CLR,,0.00,WeatherDisplay:10.37,2013-12-14 07:57:00,
2013-12-14 03:02:00,33.3,32.8,30.31,East,90,0.0,0.0,98,0.00,CLR,,0.00,WeatherDisplay:10.37,2013-12-14 08:02:00,
2013-12-14 03:07:00,33.6,33.1,30.31,ENE,68,0.0,0.0,98,0.00,CLR,,0.00,WeatherDisplay:10.37,2013-12-14 08:07:00,
2013-12-14 03:12:00,33.8,33.3,30.31,NE,45,0.0,0.0,98,0.00,CLR,,0.00,WeatherDisplay:10.37,2013-12-14 08:12:00,
2013-12-14 03:17:00,34.0,33.5,30.31,ESE,112,0.0,0.0,98,0.00,CLR,,0.00,WeatherDisplay:10.37,2013-12-14 08:17:00,
2013-12-14 03:22:00,34.2,33.7,30.31,ENE,68,0.0,0.0,98,0.00,CLR,,0.00,WeatherDisplay:10.37,2013-12-14 08:22:00,
2013-12-14 03:27:00,34.5,34.0,30.30,NE,45,0.0,0.0,98,0.00,CLR,,0.00,WeatherDisplay:10.37,2013-12-14 08:27:00,
2013-12-14 03:32:00,34.7,34.2,30.30,ENE,68,0.0,0.0,98,0.00,CLR,,0.00,WeatherDisplay:10.37,2013-12-14 08:32:00,
2013-12-14 03:37:00,34.9,34.4,30.30,NNE,22,0.0,0.0,98,0.00,CLR,,0.00,WeatherDisplay:10.37,2013-12-14 08:37:00,
2013-12-14 03:42:00,35.2,34.7,30.30,NNE,22,0.0,0.0,98,0.00,CLR,,0.00,WeatherDisplay:10.37,2013-12-14 08:42:00,
2013-12-14 03:47:00,35.2,34.7,30.30,NNE,22,0.0,0.0,98,0.00,CLR,,0.00,WeatherDisplay:10.37,2013-12-14 08:47:00,
2013-12-14 03:52:00,35.4,34.9,30.30,NNW,338,3.5,3.5,98,0.00,CLR,,0.00,WeatherDisplay:10.37,2013-12-14 08:52:00,
2013-12-14 03:57:00,35.8,35.3,30.30,ESE,112,2.0,2.0,98,0.00,CLR,,0.00,WeatherDisplay:10.37,2013-12-14 08:57:00,
2013-12-14 04:03:00,36.3,34.5,30.28,NNE,22,4.6,4.6,93,0.00,CLR,,0.00,WeatherDisplay:10.37,2013-12-14 09:03:00,
2013-12-14 04:08:00,36.9,35.9,30.28,SSW,202,0.0,0.0,96,0.00,CLR,,0.00,WeatherDisplay:10.37,2013-12-14 09:08:00,
2013-12-14 04:13:00,36.9,36.4,30.28,NE,45,0.0,0.0,98,0.00,CLR,,0.00,WeatherDisplay:10.37,2013-12-14 09:13:00,
2013-12-14 04:18:00,37.0,34.3,30.29,NNE,22,0.0,0.0,90,0.00,CLR,,0.00,WeatherDisplay:10.37,2013-12-14 09:18:00,
2013-12-14 04:23:00,37.6,34.4,30.29,SSE,158,2.3,0.0,88,0.00,CLR,,0.00,WeatherDisplay:10.37,2013-12-14 09:23:00,
2013-12-14 04:28:00,37.9,34.1,30.29,NW,315,0.0,0.0,86,0.00,CLR,,0.00,WeatherDisplay:10.37,2013-12-14 09:28:00,
2013-12-14 04:33:00,37.9,33.8,30.29,East,90,0.0,0.0,85,0.00,CLR,,0.00,WeatherDisplay:10.37,2013-12-14 09:33:00,
2013-12-14 04:38:00,38.1,33.1,30.28,East,90,0.0,0.0,82,0.00,CLR,,0.00,WeatherDisplay:10.37,2013-12-14 09:38:00,
2013-12-14 04:43:00,38.8,32.5,30.28,ESE,112,0.0,0.0,78,0.00,CLR,,0.00,WeatherDisplay:10.37,2013-12-14 09:43:00,
2013-12-14 04:48:00,38.8,33.2,30.28,WNW,292,0.0,0.0,80,0.00,CLR,,0.00,WeatherDisplay:10.37,2013-12-14 09:48:00,
2013-12-14 04:53:00,38.8,33.2,30.28,East,90,0.0,0.0,80,0.00,CLR,,0.00,WeatherDisplay:10.37,2013-12-14 09:53:00,
2013-12-14 04:58:00,38.7,34.0,30.28,ENE,68,0.0,0.0,83,0.00,CLR,,0.00,WeatherDisplay:10.37,2013-12-14 09:58:00,
2013-12-14 05:03:00,38.5,33.8,30.28,SE,135,0.0,0.0,83,0.00,CLR,,0.00,WeatherDisplay:10.37,2013-12-14 10:03:00,
2013-12-14 05:08:00,39.0,33.4,30.28,ENE,68,5.8,5.8,80,0.00,CLR,,0.00,WeatherDisplay:10.37,2013-12-14 10:08:00,
2013-12-14 05:13:00,39.4,33.1,30.27,ENE,68,3.8,3.8,78,0.00,CLR,,0.00,WeatherDisplay:10.37,2013-12-14 10:13:00,
2013-12-14 05:18:00,39.9,33.3,30.27,ENE,68,6.9,6.9,77,0.00,CLR,,0.00,WeatherDisplay:10.37,2013-12-14 10:18:00,
2013-12-14 05:23:00,40.5,33.9,30.27,East,90,3.5,3.5,77,0.00,CLR,,0.00,WeatherDisplay:10.37,2013-12-14 10:23:00,
2013-12-14 05:28:00,40.6,34.0,30.28,NE,45,3.5,3.5,77,0.00,CLR,,0.00,WeatherDisplay:10.37,2013-12-14 10:28:00,
2013-12-14 05:33:00,41.2,33.2,30.28,ENE,68,6.9,6.9,73,0.00,CLR,,0.00,WeatherDisplay:10.37,2013-12-14 10:33:00,
2013-12-14 05:38:00,41.4,33.4,30.28,NE,45,0.0,0.0,73,0.00,CLR,,0.00,WeatherDisplay:10.37,2013-12-14 10:38:00,
2013-12-14 05:43:00,41.4,34.1,30.28,NNE,22,0.0,0.0,75,0.00,CLR,,0.00,WeatherDisplay:10.37,2013-12-14 10:43:00,
2013-12-14 05:48:00,41.9,33.5,30.30,NNE,22,3.5,3.5,72,0.00,CLR,,0.00,WeatherDisplay:10.37,2013-12-14 10:48:00,
2013-12-14 05:53:00,42.3,33.9,30.30,NE,45,4.6,4.6,72,0.00,CLR,,0.00,WeatherDisplay:10.37,2013-12-14 10:53:00,
2013-12-14 05:58:00,42.4,34.0,30.30,NE,45,3.5,3.5,72,0.00,CLR,,0.00,WeatherDisplay:10.37,2013-12-14 10:58:00,
2013-12-14 06:03:00,42.8,34.0,30.30,ENE,68,5.6,5.6,71,0.00,CLR,,0.00,WeatherDisplay:10.37,2013-12-14 11:03:00,
2013-12-14 06:08:00,43.2,34.4,30.30,East,90,5.8,5.8,71,0.00,CLR,,0.00,WeatherDisplay:10.37,2013-12-14 11:08:00,
2013-12-14 06:13:00,43.3,34.5,30.29,NE,45,6.9,6.9,71,0.00,CLR,,0.00,WeatherDisplay:10.37,2013-12-14 11:13:00,
2013-12-14 06:18:00,43.7,34.9,30.29,ENE,68,4.6,4.6,71,0.00,CLR,,0.00,WeatherDisplay:10.37,2013-12-14 11:18:00,
2013-12-14 06:23:00,44.1,34.9,30.29,ENE,68,5.8,5.8,70,0.00,CLR,,0.00,WeatherDisplay:10.37,2013-12-14 11:23:00,
2013-12-14 06:28:00,44.2,35.0,30.28,NNE,22,6.9,6.9,70,0.00,CLR,,0.00,WeatherDisplay:10.37,2013-12-14 11:28:00,
2013-12-14 06:33:00,44.2,35.7,30.28,NNE,22,0.0,0.0,72,0.00,CLR,,0.00,WeatherDisplay:10.37,2013-12-14 11:33:00,
2013-12-14 06:38:00,44.4,35.2,30.28,East,90,4.7,4.7,70,0.00,CLR,,0.00,WeatherDisplay:10.37,2013-12-14 11:38:00,
2013-12-14 06:44:00,44.6,36.1,30.28,NE,45,5.8,5.8,72,0.00,CLR,,0.00,WeatherDisplay:10.37,2013-12-14 11:44:00,
2013-12-14 06:49:00,44.8,36.0,30.28,ENE,68,5.8,5.8,71,0.00,CLR,,0.00,WeatherDisplay:10.37,2013-12-14 11:49:00,
2013-12-14 06:54:00,45.0,36.2,30.28,ENE,68,3.8,3.8,71,0.00,CLR,,0.00,WeatherDisplay:10.37,2013-12-14 11:54:00,
2013-12-14 06:59:00,45.1,36.6,30.28,NE,45,5.8,5.8,72,0.00,CLR,,0.00,WeatherDisplay:10.37,2013-12-14 11:59:00,
2013-12-14 07:04:00,45.3,36.8,30.28,NE,45,3.5,3.5,72,0.00,CLR,,0.00,WeatherDisplay:10.37,2013-12-14 12:04:00,
2013-12-14 07:09:00,45.3,37.8,30.28,East,90,3.5,3.5,75,0.00,CLR,,0.00,WeatherDisplay:10.37,2013-12-14 12:09:00,
2013-12-14 07:14:00,45.3,38.2,30.27,ESE,112,3.8,3.8,76,0.00,CLR,,0.00,WeatherDisplay:10.37,2013-12-14 12:14:00,
2013-12-14 07:19:00,45.5,38.4,30.27,East,90,5.8,5.8,76,0.00,CLR,,0.00,WeatherDisplay:10.37,2013-12-14 12:19:00,
2013-12-14 07:24:00,45.5,39.0,30.27,East,90,3.5,3.5,78,0.00,CLR,,0.00,WeatherDisplay:10.37,2013-12-14 12:24:00,
2013-12-14 07:29:00,45.7,39.6,30.27,East,90,5.8,5.8,79,0.00,CLR,,0.00,WeatherDisplay:10.37,2013-12-14 12:29:00,
2013-12-14 07:34:00,45.7,40.2,30.27,ENE,68,5.8,5.8,81,0.00,CLR,,0.00,WeatherDisplay:10.37,2013-12-14 12:34:00,
2013-12-14 07:39:00,45.5,40.3,30.27,ENE,68,3.8,3.8,82,0.00,CLR,,0.00,WeatherDisplay:10.37,2013-12-14 12:39:00,
2013-12-14 07:44:00,45.5,40.3,30.27,ENE,68,6.9,6.9,82,0.00,CLR,,0.00,WeatherDisplay:10.37,2013-12-14 12:44:00,
2013-12-14 07:49:00,45.5,40.6,30.27,NE,45,5.8,5.8,83,0.00,CLR,,0.00,WeatherDisplay:10.37,2013-12-14 12:49:00,
2013-12-14 07:54:00,45.5,40.9,30.27,North,360,4.6,4.6,84,0.00,CLR,,0.00,WeatherDisplay:10.37,2013-12-14 12:54:00,
2013-12-14 07:59:00,45.5,40.9,30.27,ENE,68,5.8,5.8,84,0.00,CLR,,0.00,WeatherDisplay:10.37,2013-12-14 12:59:00,
2013-12-14 08:04:00,45.5,41.3,30.27,ESE,112,5.8,5.8,85,0.00,CLR,,0.00,WeatherDisplay:10.37,2013-12-14 13:04:00,
2013-12-14 08:09:00,45.5,41.3,30.27,NW,315,6.9,6.9,85,0.00,CLR,,0.00,WeatherDisplay:10.37,2013-12-14 13:09:00,
2013-12-14 08:14:00,45.5,41.3,30.28,ENE,68,4.7,4.7,85,0.00,CLR,,0.00,WeatherDisplay:10.37,2013-12-14 13:14:00,
2013-12-14 08:19:00,45.5,41.6,30.28,ENE,68,4.7,5.2,86,0.00,CLR,,0.00,WeatherDisplay:10.37,2013-12-14 13:19:00,
2013-12-14 08:24:00,45.7,41.1,30.28,ESE,112,6.9,6.9,84,0.00,CLR,,0.00,WeatherDisplay:10.37,2013-12-14 13:24:00,
2013-12-14 08:29:00,45.9,40.7,30.28,East,90,11.5,11.5,82,0.00,CLR,,0.00,WeatherDisplay:10.37,2013-12-14 13:29:00,
2013-12-14 08:34:00,46.0,40.8,30.28,NE,45,7.4,7.4,82,0.00,CLR,,0.00,WeatherDisplay:10.37,2013-12-14 13:34:00,
2013-12-14 08:39:00,46.2,40.7,30.28,East,90,6.9,6.9,81,0.00,CLR,,0.00,WeatherDisplay:10.37,2013-12-14 13:39:00,
2013-12-14 08:44:00,46.4,40.6,30.28,NE,45,8.1,8.1,80,0.00,CLR,,0.00,WeatherDisplay:10.37,2013-12-14 13:44:00,
2013-12-14 08:49:00,46.4,40.6,30.29,North,360,6.5,6.5,80,0.00,CLR,,0.00,WeatherDisplay:10.37,2013-12-14 13:49:00,
2013-12-14 08:54:00,46.6,40.1,30.29,ENE,68,10.1,10.1,78,0.00,CLR,,0.00,WeatherDisplay:10.37,2013-12-14 13:54:00,
2013-12-14 08:59:00,46.6,40.1,30.29,NW,315,6.5,6.5,78,0.00,CLR,,0.00,WeatherDisplay:10.37,2013-12-14 13:59:00,
2013-12-14 09:04:00,46.8,40.3,30.29,North,360,6.9,6.9,78,0.00,CLR,,0.00,WeatherDisplay:10.37,2013-12-14 14:04:00,
2013-12-14 09:09:00,46.8,40.3,30.29,NW,315,6.9,6.9,78,0.00,CLR,,0.00,WeatherDisplay:10.37,2013-12-14 14:09:00,
2013-12-14 09:14:00,46.8,40.3,30.30,ENE,68,6.9,6.9,78,0.00,CLR,,0.00,WeatherDisplay:10.37,2013-12-14 14:14:00,
2013-12-14 09:19:00,46.8,40.3,30.30,NNE,22,10.4,10.4,78,0.00,CLR,,0.00,WeatherDisplay:10.37,2013-12-14 14:19:00,
2013-12-14 09:24:00,46.8,40.0,30.29,NNE,22,6.9,6.9,77,0.00,CLR,,0.00,WeatherDisplay:10.37,2013-12-14 14:24:00,
2013-12-14 09:29:00,46.9,39.0,30.29,East,90,11.5,11.5,74,0.00,CLR,,0.00,WeatherDisplay:10.37,2013-12-14 14:29:00,
2013-12-14 09:34:00,47.1,39.2,30.29,NE,45,8.1,8.2,74,0.00,CLR,,0.00,WeatherDisplay:10.37,2013-12-14 14:34:00,
2013-12-14 09:39:00,47.5,38.6,30.27,NE,45,12.7,12.7,71,0.00,CLR,,0.00,WeatherDisplay:10.37,2013-12-14 14:39:00,
2013-12-14 09:44:00,48.0,38.3,30.27,NE,45,13.8,13.8,69,0.00,CLR,,0.00,WeatherDisplay:10.37,2013-12-14 14:44:00,
2013-12-14 09:49:00,48.4,38.3,30.27,ENE,68,12.7,12.7,68,0.00,CLR,,0.00,WeatherDisplay:10.37,2013-12-14 14:49:00,
2013-12-14 09:54:00,48.4,37.6,30.27,NE,45,11.5,11.5,66,0.00,CLR,,0.00,WeatherDisplay:10.37,2013-12-14 14:54:00,
2013-12-14 09:59:00,48.4,37.2,30.27,ENE,68,11.5,11.5,65,0.00,CLR,,0.00,WeatherDisplay:10.37,2013-12-14 14:59:00,
2013-12-14 10:05:00,48.9,36.9,30.26,NE,45,11.5,11.5,63,0.00,CLR,,0.00,WeatherDisplay:10.37,2013-12-14 15:05:00,
2013-12-14 10:10:00,49.1,37.0,30.26,ENE,68,11.5,11.5,63,0.00,CLR,,0.00,WeatherDisplay:10.37,2013-12-14 15:10:00,
2013-12-14 10:15:00,50.2,37.3,30.26,ESE,112,13.8,13.8,61,0.00,CLR,,0.00,WeatherDisplay:10.37,2013-12-14 15:15:00,
2013-12-14 10:20:00,50.7,37.3,30.26,SE,135,8.1,8.1,60,0.00,CLR,,0.00,WeatherDisplay:10.37,2013-12-14 15:20:00,
2013-12-14 10:25:00,51.1,37.3,30.26,NE,45,15.0,15.0,59,0.00,CLR,,0.00,WeatherDisplay:10.37,2013-12-14 15:25:00,
2013-12-14 10:30:00,51.3,37.0,30.24,South,180,9.2,9.2,58,0.00,CLR,,0.00,WeatherDisplay:10.37,2013-12-14 15:30:00,
2013-12-14 10:35:00,51.6,36.9,30.24,East,90,11.5,11.5,57,0.00,CLR,,0.00,WeatherDisplay:10.37,2013-12-14 15:35:00,
2013-12-14 10:40:00,52.3,37.1,30.23,ENE,68,15.0,15.0,56,0.00,CLR,,0.00,WeatherDisplay:10.37,2013-12-14 15:40:00,
2013-12-14 10:45:00,52.5,36.8,30.23,ESE,112,15.0,15.0,55,0.00,CLR,,0.00,WeatherDisplay:10.37,2013-12-14 15:45:00,
2013-12-14 10:50:00,53.1,37.8,30.23,ENE,68,11.5,11.5,56,0.00,CLR,,0.00,WeatherDisplay:10.37,2013-12-14 15:50:00,
2013-12-14 10:55:00,53.1,37.3,30.23,NE,45,12.7,12.7,55,0.00,CLR,,0.00,WeatherDisplay:10.37,2013-12-14 15:55:00,
2013-12-14 11:00:00,52.7,37.4,30.23,ENE,68,12.7,12.7,56,0.00,CLR,,0.00,WeatherDisplay:10.37,2013-12-14 16:00:00,
2013-12-14 11:05:00,52.5,38.1,30.22,ENE,68,15.0,15.0,58,0.00,CLR,,0.00,WeatherDisplay:10.37,2013-12-14 16:05:00,
2013-12-14 11:10:00,52.3,38.8,30.22,ENE,68,7.4,7.4,60,0.00,CLR,,0.00,WeatherDisplay:10.37,2013-12-14 16:10:00,
2013-12-14 11:15:00,52.3,39.2,30.20,ENE,68,10.1,10.1,61,0.00,CLR,,0.00,WeatherDisplay:10.37,2013-12-14 16:15:00,
2013-12-14 11:20:00,52.5,40.7,30.20,East,90,10.4,10.4,64,0.00,CLR,,0.00,WeatherDisplay:10.37,2013-12-14 16:20:00,
2013-12-14 11:25:00,52.3,41.7,30.19,ESE,112,15.5,15.5,67,0.00,CLR,,0.00,WeatherDisplay:10.37,2013-12-14 16:25:00,
2013-12-14 11:30:00,52.5,42.2,30.19,NE,45,8.3,8.3,68,0.00,CLR,,0.00,WeatherDisplay:10.37,2013-12-14 16:30:00,
2013-12-14 11:35:00,52.9,42.2,30.19,ENE,68,12.7,12.7,67,0.00,CLR,,0.00,WeatherDisplay:10.37,2013-12-14 16:35:00,
2013-12-14 11:40:00,53.4,42.3,30.18,East,90,9.2,9.2,66,0.00,CLR,,0.00,WeatherDisplay:10.37,2013-12-14 16:40:00,
2013-12-14 11:45:00,52.7,44.3,30.18,South,180,11.5,11.5,73,0.00,CLR,,0.00,WeatherDisplay:10.37,2013-12-14 16:45:00,
2013-12-14 11:50:00,51.4,46.1,30.16,East,90,12.7,12.7,82,0.01,RA,,0.01,WeatherDisplay:10.37,2013-12-14 16:50:00,
2013-12-14 11:55:00,51.4,46.7,30.16,SW,225,10.4,10.4,84,0.01,RA,,0.01,WeatherDisplay:10.37,2013-12-14 16:55:00,
2013-12-14 12:00:00,51.8,47.7,30.15,NE,45,11.5,11.5,86,0.01,CLR,,0.01,WeatherDisplay:10.37,2013-12-14 17:00:00,
2013-12-14 12:05:00,52.0,48.6,30.15,NE,45,6.9,6.9,88,0.01,CLR,,0.01,WeatherDisplay:10.37,2013-12-14 17:05:00,
2013-12-14 12:10:00,51.6,48.5,30.15,ESE,112,11.5,11.5,89,0.01,CLR,,0.01,WeatherDisplay:10.37,2013-12-14 17:10:00,
2013-12-14 12:15:00,51.6,48.8,30.13,North,360,10.4,10.4,90,0.01,CLR,,0.01,WeatherDisplay:10.37,2013-12-14 17:15:00,
2013-12-14 12:20:00,51.6,49.1,30.13,ENE,68,8.1,8.1,91,0.01,CLR,,0.01,WeatherDisplay:10.37,2013-12-14 17:20:00,
2013-12-14 12:25:00,51.6,49.1,30.12,ENE,68,5.8,5.8,91,0.01,CLR,,0.01,WeatherDisplay:10.37,2013-12-14 17:25:00,
2013-12-14 12:30:00,51.6,49.6,30.12,ENE,68,9.2,9.2,93,0.01,CLR,,0.01,WeatherDisplay:10.37,2013-12-14 17:30:00,
2013-12-14 12:35:00,51.8,50.1,30.12,East,90,8.1,8.1,94,0.01,CLR,,0.01,WeatherDisplay:10.37,2013-12-14 17:35:00,
2013-12-14 12:40:00,52.5,50.8,30.11,ESE,112,6.9,6.9,94,0.01,CLR,,0.01,WeatherDisplay:10.37,2013-12-14 17:40:00,
2013-12-14 12:45:00,53.1,51.1,30.11,East,90,7.4,7.4,93,0.01,CLR,,0.01,WeatherDisplay:10.37,2013-12-14 17:45:00,
2013-12-14 12:50:00,53.6,51.6,30.09,SSW,202,9.2,9.2,93,0.00,CLR,,0.01,WeatherDisplay:10.37,2013-12-14 17:50:00,
2013-12-14 12:55:00,54.0,52.0,30.09,ENE,68,8.1,8.1,93,0.00,CLR,,0.01,WeatherDisplay:10.37,2013-12-14 17:55:00,
2013-12-14 13:00:00,54.3,52.3,30.08,ENE,68,6.9,6.9,93,0.00,CLR,,0.01,WeatherDisplay:10.37,2013-12-14 18:00:00,
2013-12-14 13:05:00,54.9,52.9,30.08,SSW,202,5.8,5.8,93,0.00,CLR,,0.01,WeatherDisplay:10.37,2013-12-14 18:05:00,
2013-12-14 13:10:00,55.0,53.0,30.08,ENE,68,8.1,8.1,93,0.00,CLR,,0.01,WeatherDisplay:10.37,2013-12-14 18:10:00,
2013-12-14 13:15:00,55.4,53.4,30.08,WSW,248,0.0,0.0,93,0.00,CLR,,0.01,WeatherDisplay:10.37,2013-12-14 18:15:00,
2013-12-14 13:20:00,55.9,53.6,30.08,NNW,338,0.0,0.0,92,0.00,CLR,,0.01,WeatherDisplay:10.37,2013-12-14 18:20:00,
2013-12-14 13:25:00,56.3,54.3,30.07,ENE,68,0.0,0.0,93,0.00,CLR,,0.01,WeatherDisplay:10.37,2013-12-14 18:25:00,
2013-12-14 13:30:00,57.2,55.2,30.07,NE,45,0.0,0.7,93,0.00,CLR,,0.01,WeatherDisplay:10.37,2013-12-14 18:30:00,
2013-12-14 13:35:00,57.9,55.9,30.07,SW,225,0.0,0.0,93,0.00,CLR,,0.01,WeatherDisplay:10.37,2013-12-14 18:35:00,
2013-12-14 13:40:00,58.6,56.9,30.06,WNW,292,5.8,5.8,94,0.00,CLR,,0.01,WeatherDisplay:10.37,2013-12-14 18:40:00,
2013-12-14 13:45:00,59.0,57.0,30.06,NE,45,4.6,4.6,93,0.00,CLR,,0.01,WeatherDisplay:10.37,2013-12-14 18:45:00,
2013-12-14 13:50:00,59.7,57.1,30.04,South,180,5.6,5.6,91,0.00,CLR,,0.01,WeatherDisplay:10.37,2013-12-14 18:50:00,
2013-12-14 13:55:00,60.6,57.3,30.04,South,180,3.8,3.8,89,0.00,CLR,,0.01,WeatherDisplay:10.37,2013-12-14 18:55:00,
2013-12-14 14:01:00,61.3,57.7,30.03,SSW,202,4.7,4.7,88,0.00,CLR,,0.01,WeatherDisplay:10.37,2013-12-14 19:01:00,
2013-12-14 14:06:00,61.7,57.8,30.03,SW,225,6.9,6.9,87,0.00,CLR,,0.01,WeatherDisplay:10.37,2013-12-14 19:06:00,
2013-12-14 14:11:00,62.4,58.5,30.03,SSW,202,4.6,4.6,87,0.00,CLR,,0.01,WeatherDisplay:10.37,2013-12-14 19:11:00,
2013-12-14 14:16:00,64.8,58.8,30.02,ESE,112,5.8,5.8,81,0.00,CLR,,0.01,WeatherDisplay:10.37,2013-12-14 19:16:00,
2013-12-14 14:21:00,65.8,59.1,30.02,SSW,202,4.6,4.6,79,0.00,CLR,,0.01,WeatherDisplay:10.37,2013-12-14 19:21:00,
2013-12-14 14:26:00,66.4,58.6,29.99,SSE,158,6.5,6.5,76,0.00,CLR,,0.01,WeatherDisplay:10.37,2013-12-14 19:26:00,
2013-12-14 14:31:00,67.1,58.5,29.99,WSW,248,7.4,7.4,74,0.00,CLR,,0.01,WeatherDisplay:10.37,2013-12-14 19:31:00,
2013-12-14 14:36:00,65.7,57.9,29.99,SSE,158,6.9,6.9,76,0.00,CLR,,0.01,WeatherDisplay:10.37,2013-12-14 19:36:00,
2013-12-14 14:41:00,65.1,57.7,29.99,SSE,158,8.1,8.1,77,0.00,CLR,,0.01,WeatherDisplay:10.37,2013-12-14 19:41:00,
2013-12-14 14:46:00,64.6,57.9,29.99,SSE,158,6.9,6.9,79,0.00,CLR,,0.01,WeatherDisplay:10.37,2013-12-14 19:46:00,
2013-12-14 14:51:00,64.2,57.5,29.97,ESE,112,6.9,6.9,79,0.00,CLR,,0.01,WeatherDisplay:10.37,2013-12-14 19:51:00,
2013-12-14 14:56:00,63.7,57.8,29.97,SSE,158,4.6,4.6,81,0.00,CLR,,0.01,WeatherDisplay:10.37,2013-12-14 19:56:00,
2013-12-14 15:01:00,63.1,57.2,29.97,SSW,202,8.3,8.3,81,0.00,CLR,,0.01,WeatherDisplay:10.37,2013-12-14 20:01:00,
2013-12-14 15:06:00,63.1,57.5,29.97,ESE,112,6.9,6.9,82,0.00,CLR,,0.01,WeatherDisplay:10.37,2013-12-14 20:06:00,
2013-12-14 15:11:00,63.5,57.9,29.97,West,270,5.8,5.8,82,0.00,CLR,,0.01,WeatherDisplay:10.37,2013-12-14 20:11:00,
2013-12-14 15:16:00,63.7,58.1,29.96,WSW,248,6.5,6.5,82,0.00,CLR,,0.01,WeatherDisplay:10.37,2013-12-14 20:16:00,
2013-12-14 15:21:00,63.7,58.1,29.96,SW,225,8.1,8.1,82,0.00,CLR,,0.01,WeatherDisplay:10.37,2013-12-14 20:21:00,
2013-12-14 15:26:00,63.7,58.1,29.97,SSE,158,6.9,6.9,82,0.00,CLR,,0.01,WeatherDisplay:10.37,2013-12-14 20:26:00,
2013-12-14 15:31:00,63.5,57.9,29.97,SSE,158,6.9,6.9,82,0.00,CLR,,0.01,WeatherDisplay:10.37,2013-12-14 20:31:00,
2013-12-14 15:36:00,63.3,57.7,29.97,South,180,7.4,7.4,82,0.00,CLR,,0.01,WeatherDisplay:10.37,2013-12-14 20:36:00,
2013-12-14 15:41:00,63.1,57.9,29.97,South,180,6.9,6.9,83,0.00,CLR,,0.01,WeatherDisplay:10.37,2013-12-14 20:41:00,
2013-12-14 15:46:00,63.0,57.8,29.97,SSE,158,6.9,6.9,83,0.00,CLR,,0.01,WeatherDisplay:10.37,2013-12-14 20:46:00,
2013-12-14 15:51:00,63.0,58.1,29.96,SW,225,5.8,5.8,84,0.00,CLR,,0.01,WeatherDisplay:10.37,2013-12-14 20:51:00,
2013-12-14 15:56:00,63.0,58.1,29.96,SSW,202,6.9,6.9,84,0.00,CLR,,0.01,WeatherDisplay:10.37,2013-12-14 20:56:00,
2013-12-14 16:01:00,62.8,57.9,29.95,SSW,202,6.9,6.9,84,0.00,CLR,,0.01,WeatherDisplay:10.37,2013-12-14 21:01:00,
2013-12-14 16:06:00,62.8,57.9,29.95,WSW,248,5.8,5.8,84,0.00,CLR,,0.01,WeatherDisplay:10.37,2013-12-14 21:06:00,
2013-12-14 16:11:00,62.8,57.9,29.95,SSE,158,6.9,6.9,84,0.00,CLR,,0.01,WeatherDisplay:10.37,2013-12-14 21:11:00,
2013-12-14 16:16:00,62.8,57.9,29.94,North,360,6.9,6.9,84,0.00,CLR,,0.01,WeatherDisplay:10.37,2013-12-14 21:16:00,
2013-12-14 16:21:00,62.8,58.2,29.94,SE,135,10.4,10.4,85,0.00,CLR,,0.01,WeatherDisplay:10.37,2013-12-14 21:21:00,
2013-12-14 16:26:00,62.6,58.0,29.93,SSE,158,5.8,7.0,85,0.00,CLR,,0.01,WeatherDisplay:10.37,2013-12-14 21:26:00,
2013-12-14 16:31:00,62.4,58.2,29.93,ENE,68,7.4,7.4,86,0.00,CLR,,0.01,WeatherDisplay:10.37,2013-12-14 21:31:00,
2013-12-14 16:36:00,62.2,58.0,29.93,SSW,202,5.8,5.8,86,0.00,CLR,,0.01,WeatherDisplay:10.37,2013-12-14 21:36:00,
2013-12-14 16:41:00,62.2,58.0,29.92,SW,225,24.2,24.2,86,0.00,CLR,,0.01,WeatherDisplay:10.37,2013-12-14 21:41:00,
2013-12-14 16:46:00,62.2,58.3,29.92,SW,225,6.9,6.9,87,0.00,CLR,,0.01,WeatherDisplay:10.37,2013-12-14 21:46:00,
2013-12-14 16:51:00,62.2,58.3,29.91,SE,135,8.3,8.3,87,0.00,CLR,,0.01,WeatherDisplay:10.37,2013-12-14 21:51:00,
2013-12-14 16:56:00,62.2,58.3,29.91,ESE,112,11.5,11.5,87,0.00,CLR,,0.01,WeatherDisplay:10.37,2013-12-14 21:56:00,
2013-12-14 17:01:00,62.2,58.6,29.90,South,180,15.0,15.0,88,0.00,CLR,,0.01,WeatherDisplay:10.37,2013-12-14 22:01:00,
2013-12-14 17:06:00,62.2,58.6,29.90,NNE,22,6.9,6.9,88,0.00,CLR,,0.01,WeatherDisplay:10.37,2013-12-14 22:06:00,
2013-12-14 17:11:00,62.4,59.1,29.90,South,180,6.9,6.9,89,0.00,CLR,,0.01,WeatherDisplay:10.37,2013-12-14 22:11:00,
2013-12-14 17:16:00,62.4,59.1,29.90,ESE,112,5.8,5.8,89,0.00,CLR,,0.01,WeatherDisplay:10.37,2013-12-14 22:16:00,
2013-12-14 17:21:00,62.4,59.1,29.90,ESE,112,5.6,5.6,89,0.00,CLR,,0.01,WeatherDisplay:10.37,2013-12-14 22:21:00,
2013-12-14 17:26:00,62.2,58.9,29.89,SSE,158,7.4,7.4,89,0.00,CLR,,0.01,WeatherDisplay:10.37,2013-12-14 22:26:00,
2013-12-14 17:31:00,63.0,59.1,29.89,SSE,158,8.1,8.1,87,0.00,CLR,,0.01,WeatherDisplay:10.37,2013-12-14 22:31:00,
2013-12-14 17:36:00,63.7,59.4,29.89,ESE,112,6.9,6.9,86,0.00,CLR,,0.01,WeatherDisplay:10.37,2013-12-14 22:36:00,
2013-12-14 17:41:00,63.9,59.6,29.89,SSW,202,8.1,8.1,86,0.00,CLR,,0.01,WeatherDisplay:10.37,2013-12-14 22:41:00,
2013-12-14 17:46:00,64.0,60.1,29.89,ESE,112,10.4,10.4,87,0.00,CLR,,0.01,WeatherDisplay:10.37,2013-12-14 22:46:00,
2013-12-14 17:51:00,64.0,59.7,29.89,ESE,112,9.2,9.2,86,0.00,CLR,,0.01,WeatherDisplay:10.37,2013-12-14 22:51:00,
2013-12-14 17:56:00,64.0,59.7,29.89,SSW,202,7.4,7.4,86,0.00,CLR,,0.01,WeatherDisplay:10.37,2013-12-14 22:56:00,
2013-12-14 18:01:00,64.2,59.9,29.88,SSW,202,8.1,8.1,86,0.00,CLR,,0.01,WeatherDisplay:10.37,2013-12-14 23:01:00,
2013-12-14 18:06:00,64.2,59.9,29.88,South,180,9.2,9.2,86,0.00,CLR,,0.01,WeatherDisplay:10.37,2013-12-14 23:06:00,
2013-12-14 18:11:00,64.2,60.2,29.88,SW,225,10.4,10.4,87,0.00,CLR,,0.01,WeatherDisplay:10.37,2013-12-14 23:11:00,
2013-12-14 18:16:00,64.6,60.6,29.87,WSW,248,8.3,8.3,87,0.00,CLR,,0.01,WeatherDisplay:10.37,2013-12-14 23:16:00,
2013-12-14 18:22:00,64.8,60.5,29.87,SW,225,8.3,8.3,86,0.00,CLR,,0.01,WeatherDisplay:10.37,2013-12-14 23:22:00,
2013-12-14 18:27:00,64.8,60.5,29.86,SSW,202,6.9,6.9,86,0.00,CLR,,0.01,WeatherDisplay:10.37,2013-12-14 23:27:00,
2013-12-14 18:32:00,64.2,61.5,29.86,SE,135,6.9,6.9,91,0.00,CLR,,0.01,WeatherDisplay:10.37,2013-12-14 23:32:00,
2013-12-14 18:37:00,63.5,61.7,29.86,SSW,202,8.1,8.1,94,0.01,RA,,0.02,WeatherDisplay:10.37,2013-12-14 23:37:00,
2013-12-14 18:42:00,63.1,61.9,29.86,South,180,6.9,6.9,96,0.01,RA,,0.02,WeatherDisplay:10.37,2013-12-14 23:42:00,
2013-12-14 18:47:00,63.0,61.8,29.86,SSW,202,7.4,7.4,96,0.01,,,0.02,WeatherDisplay:10.37,2013-12-14 23:47:00,
2013-12-14 18:52:00,62.8,62.2,29.84,WSW,248,8.3,8.3,98,0.02,RA,,0.03,WeatherDisplay:10.37,2013-12-14 23:52:00,
2013-12-14 18:57:00,62.8,62.2,29.84,SSW,202,8.1,8.1,98,0.02,RA,,0.03,WeatherDisplay:10.37,2013-12-14 23:57:00,
2013-12-14 19:02:00,62.8,62.2,29.83,WSW,248,8.1,8.1,98,0.02,,,0.03,WeatherDisplay:10.37,2013-12-15 00:02:00,
2013-12-14 19:07:00,63.1,62.5,29.83,South,180,6.9,6.9,98,0.02,CLR,,0.03,WeatherDisplay:10.37,2013-12-15 00:07:00,
2013-12-14 19:12:00,63.1,62.5,29.83,SSW,202,9.2,9.2,98,0.03,RA,,0.05,WeatherDisplay:10.37,2013-12-15 00:12:00,
2013-12-14 19:17:00,63.1,62.5,29.84,West,270,8.1,8.1,98,0.05,RA,,0.06,WeatherDisplay:10.37,2013-12-15 00:17:00,
2013-12-14 19:22:00,63.1,62.5,29.84,SSW,202,6.9,6.9,98,0.05,RA,,0.06,WeatherDisplay:10.37,2013-12-15 00:22:00,
2013-12-14 19:27:00,63.0,62.4,29.82,SE,135,9.2,9.2,98,0.06,RA,,0.07,WeatherDisplay:10.37,2013-12-15 00:27:00,
2013-12-14 19:32:00,63.0,62.4,29.82,SW,225,8.1,8.1,98,0.06,RA,,0.07,WeatherDisplay:10.37,2013-12-15 00:32:00,
2013-12-14 19:37:00,63.0,62.4,29.82,SSW,202,6.9,6.9,98,0.06,RA,,0.08,WeatherDisplay:10.37,2013-12-15 00:37:00,
2013-12-14 19:42:00,62.8,62.2,29.82,SSE,158,8.3,8.3,98,0.06,RA,,0.08,WeatherDisplay:10.37,2013-12-15 00:42:00,
2013-12-14 19:47:00,62.8,62.2,29.82,South,180,6.9,6.9,98,0.07,RA,,0.09,WeatherDisplay:10.37,2013-12-15 00:47:00,
2013-12-14 19:52:00,62.8,62.2,29.81,South,180,6.9,6.9,98,0.07,RA,,0.10,WeatherDisplay:10.37,2013-12-15 00:52:00,
2013-12-14 19:57:00,62.8,62.2,29.81,South,180,6.9,6.9,98,0.08,RA,,0.11,WeatherDisplay:10.37,2013-12-15 00:57:00,
2013-12-14 20:02:00,62.8,62.2,29.81,South,180,7.4,7.4,98,0.11,RA,,0.14,WeatherDisplay:10.37,2013-12-15 01:02:00,
2013-12-14 20:07:00,62.8,62.2,29.81,SSE,158,6.9,6.9,98,0.13,RA,,0.17,WeatherDisplay:10.37,2013-12-15 01:07:00,
2013-12-14 20:12:00,63.1,62.5,29.81,South,180,8.1,8.1,98,0.15,RA,,0.20,WeatherDisplay:10.37,2013-12-15 01:12:00,
2013-12-14 20:17:00,63.3,62.7,29.80,South,180,6.9,6.9,98,0.17,RA,,0.24,WeatherDisplay:10.37,2013-12-15 01:17:00,
2013-12-14 20:22:00,63.3,62.7,29.80,West,270,6.5,6.5,98,0.20,RA,,0.26,WeatherDisplay:10.37,2013-12-15 01:22:00,
2013-12-14 20:27:00,63.3,62.7,29.79,SSE,158,4.7,4.7,98,0.23,RA,,0.30,WeatherDisplay:10.37,2013-12-15 01:27:00,
2013-12-14 20:32:00,63.3,62.7,29.79,West,270,5.8,5.8,98,0.25,RA,,0.32,WeatherDisplay:10.37,2013-12-15 01:32:00,
2013-12-14 20:37:00,63.7,63.1,29.80,West,270,10.1,10.1,98,0.30,RA,,0.42,WeatherDisplay:10.37,2013-12-15 01:37:00,
2013-12-14 20:42:00,63.9,63.3,29.80,SW,225,10.4,10.4,98,0.68,RA,,0.81,WeatherDisplay:10.37,2013-12-15 01:42:00,
2013-12-14 20:47:00,64.0,63.4,29.80,WSW,248,9.2,9.2,98,0.91,RA,,1.07,WeatherDisplay:10.37,2013-12-15 01:47:00,
2013-12-14 20:52:00,64.2,63.6,29.82,SSE,158,10.4,10.4,98,1.08,RA,,1.21,WeatherDisplay:10.37,2013-12-15 01:52:00,
2013-12-14 20:57:00,64.2,63.6,29.82,South,180,11.5,11.5,98,1.22,RA,,1.33,WeatherDisplay:10.37,2013-12-15 01:57:00,
2013-12-14 21:02:00,63.7,63.1,29.82,SSW,202,9.2,9.2,98,1.24,RA,,1.40,WeatherDisplay:10.37,2013-12-15 02:02:00,
2013-12-14 21:07:00,63.9,63.3,29.82,West,270,6.9,6.9,98,1.34,RA,,1.52,WeatherDisplay:10.37,2013-12-15 02:07:00,
2013-12-14 21:12:00,64.2,63.6,29.82,SE,135,15.0,15.0,98,1.43,RA,,1.66,WeatherDisplay:10.37,2013-12-15 02:12:00,
2013-12-14 21:17:00,64.6,64.0,29.81,SE,135,6.9,6.9,98,1.53,RA,,1.80,WeatherDisplay:10.37,2013-12-15 02:17:00,
2013-12-14 21:22:00,64.6,64.0,29.81,SSW,202,8.1,8.1,98,1.59,RA,,1.88,WeatherDisplay:10.37,2013-12-15 02:22:00,
2013-12-14 21:27:00,64.6,64.0,29.79,SW,225,4.7,4.7,98,1.59,RA,,1.89,WeatherDisplay:10.37,2013-12-15 02:27:00,
2013-12-14 21:32:00,64.4,63.8,29.79,SSE,158,5.8,5.8,98,1.58,RA,,1.91,WeatherDisplay:10.37,2013-12-15 02:32:00,
2013-12-14 21:37:00,64.2,63.6,29.79,SSW,202,4.6,4.6,98,1.55,RA,,1.94,WeatherDisplay:10.37,2013-12-15 02:37:00,
2013-12-14 21:42:00,63.9,63.3,29.79,ESE,112,5.8,5.8,98,1.20,RA,,1.98,WeatherDisplay:10.37,2013-12-15 02:42:00,
2013-12-14 21:47:00,63.9,63.3,29.79,SSW,202,11.5,11.5,98,1.02,RA,,2.03,WeatherDisplay:10.37,2013-12-15 02:47:00,
2013-12-14 21:52:00,64.2,63.6,29.78,SSW,202,10.4,10.4,98,0.90,RA,,2.09,WeatherDisplay:10.37,2013-12-15 02:52:00,
2013-12-14 21:57:00,64.2,63.6,29.78,SSW,202,8.1,8.1,98,0.79,RA,,2.13,WeatherDisplay:10.37,2013-12-15 02:57:00,
2013-12-14 22:02:00,63.9,63.3,29.79,WSW,248,9.2,9.2,98,0.79,RA,,2.18,WeatherDisplay:10.37,2013-12-15 03:02:00,
2013-12-14 22:07:00,63.5,62.9,29.79,SSW,202,11.9,11.9,98,0.71,RA,,2.21,WeatherDisplay:10.37,2013-12-15 03:07:00,
2013-12-14 22:12:00,63.3,62.7,29.79,West,270,12.7,12.7,98,0.60,RA,,2.22,WeatherDisplay:10.37,2013-12-15 03:12:00,
2013-12-14 22:17:00,63.5,62.9,29.77,West,270,8.1,10.7,98,0.54,RA,,2.31,WeatherDisplay:10.37,2013-12-15 03:17:00,
2013-12-14 22:22:00,63.5,62.9,29.77,WSW,248,9.2,9.2,98,0.46,RA,,2.31,WeatherDisplay:10.37,2013-12-15 03:22:00,
2013-12-14 22:27:00,63.0,62.4,29.79,SSW,202,9.2,9.2,98,0.42,RA,,2.31,WeatherDisplay:10.37,2013-12-15 03:27:00,
2013-12-14 22:32:00,62.6,62.0,29.79,SSW,202,6.9,6.9,98,0.41,CLR,,2.31,WeatherDisplay:10.37,2013-12-15 03:32:00,
2013-12-14 22:37:00,62.2,61.6,29.77,SW,225,3.5,3.5,98,0.38,CLR,,2.31,WeatherDisplay:10.37,2013-12-15 03:37:00,
2013-12-14 22:42:00,62.1,61.5,29.77,SW,225,5.8,5.8,98,0.35,CLR,,2.31,WeatherDisplay:10.37,2013-12-15 03:42:00,
2013-12-14 22:47:00,61.7,61.1,29.77,SSW,202,4.6,4.6,98,0.29,RA,,2.32,WeatherDisplay:10.37,2013-12-15 03:47:00,
2013-12-14 22:52:00,61.7,61.1,29.77,SSW,202,0.0,0.0,98,0.23,RA,,2.32,WeatherDisplay:10.37,2013-12-15 03:52:00,
2013-12-14 22:57:00,61.5,60.9,29.77,SW,225,0.0,0.0,98,0.20,,,2.32,WeatherDisplay:10.37,2013-12-15 03:57:00,
2013-12-14 23:02:00,61.3,60.7,29.76,SW,225,0.0,0.0,98,0.14,CLR,,2.32,WeatherDisplay:10.37,2013-12-15 04:02:00,
2013-12-14 23:07:00,61.2,60.6,29.76,SSW,202,0.0,0.0,98,0.11,CLR,,2.32,WeatherDisplay:10.37,2013-12-15 04:07:00,
2013-12-14 23:12:00,61.2,60.6,29.76,South,180,0.0,0.0,98,0.10,CLR,,2.32,WeatherDisplay:10.37,2013-12-15 04:12:00,
2013-12-14 23:17:00,61.2,60.6,29.75,SSW,202,3.5,3.5,98,0.03,RA,,2.34,WeatherDisplay:10.37,2013-12-15 04:17:00,
2013-12-14 23:23:00,60.4,59.8,29.75,SW,225,5.8,5.8,98,0.03,RA,,2.34,WeatherDisplay:10.37,2013-12-15 04:23:00,
2013-12-14 23:28:00,60.4,59.8,29.75,SW,225,4.6,4.6,98,0.05,RA,,2.37,WeatherDisplay:10.37,2013-12-15 04:28:00,
2013-12-14 23:33:00,60.3,59.7,29.75,SW,225,3.5,3.5,98,0.09,RA,,2.40,WeatherDisplay:10.37,2013-12-15 04:33:00,
2013-12-14 23:38:00,60.1,59.5,29.76,SSW,202,3.5,3.5,98,0.10,RA,,2.41,WeatherDisplay:10.37,2013-12-15 04:38:00,
2013-12-14 23:43:00,60.1,59.5,29.76,SSW,202,3.5,3.5,98,0.10,RA,,2.41,WeatherDisplay:10.37,2013-12-15 04:43:00,
2013-12-14 23:48:00,60.3,59.7,29.76,WSW,248,4.7,4.7,98,0.09,CLR,,2.41,WeatherDisplay:10.37,2013-12-15 04:48:00,
2013-12-14 23:53:00,60.4,59.8,29.77,West,270,4.7,4.7,98,0.10,RA,,2.42,WeatherDisplay:10.37,2013-12-15 04:53:00,
2013-12-14 23:58:00,60.8,60.2,29.77,SW,225,5.8,5.8,98,0.10,RA,,2.42,WeatherDisplay:10.37,2013-12-15 04:58:00,